Wind From: 11-12-2017 04:25 Until: 16:00 warning for: Wind Level: Orange info button

Power and phone distribution networks may be disrupted for relatively long periods., Roofs and chimneys can be damaged. , Tree branches may break. , Vehicles can be deported. , Traffic may be disrupted, particularly on secondary roads in forest areas. Limit your trips. , Limit your speed in highway driving, especially if you drive a vehicle or hitch sensitive to wind. , Do not go for walks in forests or along the coast., In town, be vigilant against possible falling objects., Do not work on roofs and do not touch any electrical line fallen on the ground., Store or secure sensitive objects to wind or likely to be damaged., Always install power generators outside buildings. 


Meteo18 Weather Cam more information Meteo18 Weather Cam


Thunder radar more information blitzortung!


Rain radar more information rain snow radar


Visit our other weather sites:

Template documentation
and downloads

And another site



Weather Underground History page Text

Daily Summary for February 18, 2017 Units:  English    Metric   Both
« Previous Day
Next Day »
Daily Weekly Monthly Yearly Custom
  High: Low: Average:
Temperature: 53.8 °F 34.5 °F 43.9 °F
Dew Point: 41.9 °F 33.4 °F 37.6 °F
Humidity: 96 % 52 % 80 %
Wind Speed: 10 mph 0 mph 2.3 mph
Wind Gust: 16 mph - -
Wind:- - East
Pressure: 30.4 in 30.2 in -
Precipitation: 0.01 in    
Historical Graphs
 
 
Tabular Data for February 18, 2017
Time Temperature Dew Point Pressure Wind Wind Speed Wind Gust Humidity Rainfall Rate (Hourly)
00:02 40.6 °F 38.3 °F 30.4 in Calm   1 mph 91 % 0 in
00:07 40.5 °F 38.1 °F 30.4 in Calm   1 mph 91 % 0 in
00:12 40.3 °F 37.9 °F 30.4 in Calm   1 mph 91 % 0 in
00:17 40.1 °F 37.9 °F 30.4 in Calm   1 mph 92 % 0 in
00:22 40.5 °F 38.3 °F 30.4 in Calm   1 mph 92 % 0 in
00:32 40.6 °F 38.3 °F 30.4 in Calm   1 mph 91 % 0 in
00:42 40.8 °F 38.5 °F 30.4 in Calm   1 mph 91 % 0 in
00:47 41.2 °F 38.5 °F 30.4 in NNW 1 mph 2 mph 90 % 0 in
00:52 41.2 °F 38.5 °F 30.4 in Calm   2 mph 90 % 0 in
00:57 39.6 °F 36.3 °F 30.4 in West 1 mph 2 mph 88 % 0 in
01:02 38.7 °F 36.5 °F 30.4 in WNW 2 mph 2 mph 92 % 0 in
01:07 38.8 °F 37.2 °F 30.4 in WNW 1 mph 3 mph 94 % 0 in
01:12 39.6 °F 37.8 °F 30.4 in NW 1 mph 3 mph 93 % 0 in
01:17 39 °F 36.3 °F 30.4 in WNW 1 mph 3 mph 90 % 0 in
01:22 38.5 °F 36.3 °F 30.4 in WNW 1 mph 2 mph 92 % 0 in
01:32 39.9 °F 38.1 °F 30.4 in Calm   2 mph 93 % 0 in
01:42 40.5 °F 38.1 °F 30.4 in Calm   1 mph 91 % 0 in
01:47 40.5 °F 38.1 °F 30.4 in Calm   1 mph 91 % 0 in
01:52 40.3 °F 37.6 °F 30.4 in Calm   1 mph 90 % 0 in
01:57 39.7 °F 37 °F 30.4 in Calm   1 mph 90 % 0 in
02:02 39.6 °F 36.9 °F 30.4 in North 1 mph 1 mph 90 % 0 in
02:12 39.4 °F 37 °F 30.3 in NNW 1 mph 2 mph 91 % 0 in
02:17 39 °F 36.7 °F 30.3 in Calm   2 mph 91 % 0 in
02:22 38.8 °F 36.5 °F 30.3 in Calm   1 mph 91 % 0 in
02:27 38.8 °F 36.7 °F 30.3 in Calm   1 mph 92 % 0 in
02:32 38.7 °F 36.5 °F 30.3 in Calm     92 % 0 in
02:37 38.7 °F 36.5 °F 30.3 in Calm     92 % 0 in
02:47 38.5 °F 36.3 °F 30.3 in NW 1 mph 2 mph 92 % 0 in
02:57 38.3 °F 36.1 °F 30.3 in Calm   2 mph 92 % 0 in
03:02 38.3 °F 36.5 °F 30.3 in NNW 1 mph 2 mph 93 % 0 in
03:12 38.1 °F 36.3 °F 30.3 in NW 1 mph 1 mph 93 % 0 in
03:17 38.3 °F 36.5 °F 30.3 in Calm   1 mph 93 % 0 in
03:22 38.3 °F 36.5 °F 30.3 in Calm   2 mph 93 % 0 in
03:27 38.1 °F 36.3 °F 30.3 in Calm   2 mph 93 % 0 in
03:32 37.9 °F 36.1 °F 30.3 in Calm   2 mph 93 % 0 in
03:37 37.9 °F 36.1 °F 30.3 in Calm   2 mph 93 % 0 in
03:42 37.6 °F 35.8 °F 30.3 in NNW 1 mph 2 mph 93 % 0 in
03:47 37.6 °F 35.8 °F 30.3 in Calm   2 mph 93 % 0 in
03:52 37.4 °F 35.6 °F 30.3 in Calm   2 mph 93 % 0 in
03:57 37.4 °F 35.8 °F 30.3 in Calm   2 mph 94 % 0 in
04:02 37.2 °F 35.4 °F 30.3 in Calm   2 mph 93 % 0 in
04:12 37.2 °F 35.6 °F 30.3 in Calm   2 mph 94 % 0 in
04:22 37.6 °F 36 °F 30.3 in Calm     94 % 0 in
04:32 37.8 °F 36.1 °F 30.3 in Calm     94 % 0 in
04:37 37.8 °F 36.1 °F 30.3 in Calm     94 % 0 in
04:42 37.6 °F 35.8 °F 30.3 in Calm     93 % 0 in
04:47 37.4 °F 35.6 °F 30.3 in Calm     93 % 0 in
04:52 37.4 °F 35.8 °F 30.3 in Calm     94 % 0 in
05:02 37 °F 35.4 °F 30.3 in Calm     94 % 0 in
05:12 37.9 °F 36.3 °F 30.3 in Calm     94 % 0 in
05:22 37.6 °F 35.8 °F 30.3 in Calm     93 % 0 in
05:32 37.6 °F 36 °F 30.3 in North 1 mph   94 % 0 in
05:42 37.2 °F 35.4 °F 30.3 in Calm   2 mph 93 % 0 in
05:52 36.5 °F 34.7 °F 30.3 in Calm   1 mph 93 % 0 in
05:57 36.1 °F 34.5 °F 30.3 in Calm     94 % 0 in
06:02 36.3 °F 35.1 °F 30.3 in Calm     95 % 0 in
06:07 36.9 °F 35.6 °F 30.3 in Calm     95 % 0 in
06:12 36.9 °F 35.6 °F 30.3 in Calm     95 % 0 in
06:17 36.9 °F 35.2 °F 30.3 in Calm   1 mph 94 % 0 in
06:22 36.3 °F 34.7 °F 30.3 in Calm   1 mph 94 % 0 in
06:32 36.3 °F 35.1 °F 30.3 in Calm   1 mph 95 % 0 in
06:42 36.1 °F 34.5 °F 30.3 in Calm     94 % 0 in
06:47 35.4 °F 33.8 °F 30.3 in Calm     94 % 0 in
06:52 35.2 °F 33.6 °F 30.3 in Calm     94 % 0 in
07:02 35.1 °F 33.4 °F 30.3 in Calm     94 % 0 in
07:12 35.1 °F 34 °F 30.3 in Calm     96 % 0 in
07:17 35.1 °F 33.8 °F 30.3 in Calm     95 % 0 in
07:22 34.9 °F 33.6 °F 30.3 in Calm     95 % 0 in
07:32 35.4 °F 34.3 °F 30.3 in Calm     96 % 0 in
07:42 35.2 °F 34 °F 30.3 in Calm     95 % 0 in
07:47 34.7 °F 33.4 °F 30.3 in Calm     95 % 0 in
07:52 34.5 °F 33.4 °F 30.3 in Calm     96 % 0 in
08:02 35.1 °F 34 °F 30.3 in Calm     96 % 0 in
08:12 35.2 °F 34.2 °F 30.3 in Calm     96 % 0 in
08:17 35.1 °F 33.8 °F 30.3 in Calm   1 mph 95 % 0 in
08:22 34.9 °F 33.6 °F 30.3 in Calm   1 mph 95 % 0 in
08:32 35.2 °F 34.2 °F 30.3 in Calm   1 mph 96 % 0 in
08:42 35.8 °F 34.7 °F 30.3 in Calm     96 % 0 in
08:52 36.1 °F 35.1 °F 30.3 in Calm     96 % 0.01 in
09:02 36.5 °F 35.2 °F 30.3 in Calm     95 % 0.01 in
09:12 37.6 °F 36.3 °F 30.3 in NNE 2 mph   95 % 0.01 in
09:17 37.9 °F 36.3 °F 30.3 in Calm     94 % 0.01 in
09:22 38.5 °F 36.9 °F 30.3 in Calm   2 mph 94 % 0.01 in
09:37 40.3 °F 37.9 °F 30.3 in ENE 1 mph 1 mph 91 % 0.01 in
09:42 40.5 °F 38.1 °F 30.3 in Calm   1 mph 91 % 0.01 in
09:47 40.5 °F 37.4 °F 30.3 in Calm   2 mph 89 % 0 in
09:52 40.1 °F 37 °F 30.3 in NE 2 mph 2 mph 89 % 0 in
10:02 40.6 °F 37.6 °F 30.3 in Calm   4 mph 89 % 0 in
10:12 41.4 °F 38.3 °F 30.3 in ESE 2 mph 3 mph 89 % 0 in
10:17 41.7 °F 38.5 °F 30.3 in ENE 1 mph 5 mph 88 % 0 in
10:22 41.9 °F 38.7 °F 30.3 in East 1 mph 6 mph 88 % 0 in
10:32 42.6 °F 39.4 °F 30.3 in ENE 2 mph 6 mph 88 % 0 in
10:42 43.2 °F 39.2 °F 30.3 in ENE 3 mph 5 mph 86 % 0 in
10:47 43.3 °F 39.4 °F 30.3 in NNE 2 mph 5 mph 86 % 0 in
10:52 43.7 °F 39.6 °F 30.3 in Calm   5 mph 85 % 0 in
10:57 44.1 °F 39.6 °F 30.3 in Calm   5 mph 84 % 0 in
11:02 44.4 °F 39.9 °F 30.3 in Calm   5 mph 84 % 0 in
11:07 44.8 °F 40.3 °F 30.3 in East 3 mph 6 mph 84 % 0 in
11:12 45 °F 40.5 °F 30.3 in NNE 1 mph 6 mph 84 % 0 in
11:17 45.1 °F 40.3 °F 30.3 in ENE 2 mph 6 mph 83 % 0 in
11:22 45.5 °F 40.6 °F 30.3 in East 5 mph 6 mph 83 % 0 in
11:32 46 °F 40.8 °F 30.3 in ENE 2 mph 7 mph 82 % 0 in
11:37 46.4 °F 41.2 °F 30.3 in North 3 mph 7 mph 82 % 0 in
11:42 46.8 °F 41.5 °F 30.3 in ENE 2 mph 7 mph 82 % 0 in
11:47 47.1 °F 41.5 °F 30.3 in ENE 2 mph 7 mph 81 % 0 in
11:52 47.5 °F 41.9 °F 30.3 in ENE 1 mph 6 mph 81 % 0 in
11:57 47.7 °F 41.7 °F 30.3 in ENE 1 mph 6 mph 80 % 0 in
12:02 47.8 °F 41.4 °F 30.3 in ENE 3 mph 6 mph 78 % 0 in
12:07 48.4 °F 41.2 °F 30.3 in NE 4 mph 6 mph 76 % 0 in
12:12 48.6 °F 41.4 °F 30.3 in ENE 3 mph 8 mph 76 % 0 in
12:22 48.9 °F 41.7 °F 30.3 in NE 5 mph 8 mph 76 % 0 in
12:32 49.8 °F 41.9 °F 30.3 in ENE 4 mph 7 mph 74 % 0 in
12:37 50 °F 41.4 °F 30.3 in ENE 2 mph 7 mph 72 % 0 in
12:42 50.4 °F 41.7 °F 30.3 in ENE 3 mph 7 mph 72 % 0 in
12:47 50.5 °F 40.8 °F 30.3 in NE 6 mph 8 mph 69 % 0 in
12:52 50.5 °F 39.6 °F 30.3 in East 3 mph 9 mph 66 % 0 in
12:57 50.5 °F 40.8 °F 30.3 in NNE 5 mph 9 mph 69 % 0 in
13:02 50.7 °F 40.5 °F 30.3 in NNE 5 mph 9 mph 68 % 0 in
13:07 50.9 °F 41.2 °F 30.3 in NE 4 mph 8 mph 69 % 0 in
13:17 51.3 °F 41.9 °F 30.3 in NE 6 mph 8 mph 70 % 0 in
13:22 51.6 °F 41.7 °F 30.3 in ENE 3 mph 8 mph 69 % 0 in
13:27 51.6 °F 40.3 °F 30.3 in East 3 mph 8 mph 65 % 0 in
13:32 51.6 °F 41.4 °F 30.3 in NE 5 mph 7 mph 68 % 0 in
13:37 51.8 °F 41.5 °F 30.3 in ENE 9 mph 10 mph 68 % 0 in
13:42 52 °F 41 °F 30.3 in NE 2 mph 11 mph 66 % 0 in
13:47 52 °F 41.4 °F 30.3 in NNE 4 mph 11 mph 67 % 0 in
13:52 52 °F 41.4 °F 30.3 in NNW 5 mph 11 mph 67 % 0 in
13:57 52 °F 40.6 °F 30.3 in NNE 8 mph 11 mph 65 % 0 in
14:02 52.3 °F 40.5 °F 30.3 in NE 6 mph 11 mph 64 % 0 in
14:07 52.5 °F 39.4 °F 30.3 in NNE 2 mph 12 mph 61 % 0 in
14:12 52.9 °F 41 °F 30.3 in NE 6 mph 12 mph 64 % 0 in
14:17 52.5 °F 39.4 °F 30.3 in NNE 10 mph 12 mph 61 % 0 in
14:22 52.5 °F 39.9 °F 30.3 in NE 2 mph 13 mph 62 % 0 in
14:32 52.5 °F 38.7 °F 30.2 in NE 5 mph 13 mph 59 % 0 in
14:37 52.5 °F 38.7 °F 30.2 in NE 8 mph 13 mph 59 % 0 in
14:42 52.7 °F 39.2 °F 30.2 in East 4 mph 13 mph 60 % 0 in
14:47 52.9 °F 39.7 °F 30.2 in NE 5 mph 13 mph 61 % 0 in
14:52 53.1 °F 39.6 °F 30.2 in NE 7 mph 13 mph 60 % 0 in
14:57 53.1 °F 39.6 °F 30.2 in ENE 5 mph 13 mph 60 % 0 in
15:02 53.2 °F 39.7 °F 30.2 in East 5 mph 13 mph 60 % 0 in
15:07 53.2 °F 39.7 °F 30.2 in ENE 6 mph 13 mph 60 % 0 in
15:12 53.2 °F 38.8 °F 30.2 in ENE 8 mph 11 mph 58 % 0 in
15:17 53.2 °F 38.8 °F 30.2 in NE 5 mph 12 mph 58 % 0 in
15:22 53.2 °F 38.8 °F 30.2 in ENE 9 mph 16 mph 58 % 0 in
15:32 53.4 °F 38.1 °F 30.2 in East 5 mph 16 mph 56 % 0 in
15:37 53.4 °F 38.5 °F 30.2 in NE 10 mph 13 mph 57 % 0 in
15:42 53.2 °F 38.8 °F 30.2 in ENE 8 mph 14 mph 58 % 0 in
15:47 53.2 °F 38.5 °F 30.2 in NE 5 mph 14 mph 57 % 0 in
15:52 53.2 °F 38.8 °F 30.2 in NNE 10 mph 15 mph 58 % 0 in
15:57 53.4 °F 37.6 °F 30.2 in NE 5 mph 15 mph 55 % 0 in
16:02 53.4 °F 37.2 °F 30.2 in East 5 mph 15 mph 54 % 0 in
16:07 53.6 °F 38.3 °F 30.2 in ENE 10 mph 11 mph 56 % 0 in
16:12 53.4 °F 39 °F 30.2 in NE 5 mph 13 mph 58 % 0 in
16:17 53.4 °F 38.5 °F 30.2 in NE 6 mph 13 mph 57 % 0 in
16:22 53.6 °F 38.3 °F 30.2 in ENE 4 mph 13 mph 56 % 0 in
16:32 53.8 °F 36.5 °F 30.2 in ENE 5 mph 11 mph 52 % 0 in
16:42 53.6 °F 38.3 °F 30.2 in NE 2 mph 10 mph 56 % 0 in
16:47 53.4 °F 37.6 °F 30.2 in ENE 9 mph 10 mph 55 % 0 in
16:52 53.2 °F 37.4 °F 30.2 in NNE 9 mph 12 mph 55 % 0 in
17:02 53.1 °F 37.8 °F 30.2 in ENE 4 mph 12 mph 56 % 0 in
17:12 52.9 °F 38.1 °F 30.2 in NE 7 mph 10 mph 57 % 0 in
17:17 52.7 °F 38.3 °F 30.2 in NE 4 mph 10 mph 58 % 0 in
17:22 52.5 °F 37.8 °F 30.2 in NNE 6 mph 10 mph 57 % 0 in
17:32 52.3 °F 38.5 °F 30.2 in NNE 6 mph 8 mph 59 % 0 in
17:37 52.2 °F 38.3 °F 30.2 in NE 6 mph 7 mph 59 % 0 in
17:47 51.8 °F 38.3 °F 30.2 in NNE 7 mph 9 mph 60 % 0 in
17:52 51.6 °F 38.1 °F 30.2 in NE 8 mph 12 mph 60 % 0 in
18:07 50.7 °F 38.7 °F 30.3 in NE 4 mph 11 mph 63 % 0 in
18:12 50.4 °F 39 °F 30.3 in NE 7 mph 8 mph 65 % 0 in
18:17 50 °F 38.7 °F 30.3 in NNE 6 mph 8 mph 65 % 0 in
18:22 49.6 °F 38.3 °F 30.3 in NE 6 mph 10 mph 65 % 0 in
18:32 49.1 °F 38.3 °F 30.3 in NNE 5 mph 10 mph 66 % 0 in
18:37 48.7 °F 38.3 °F 30.3 in NNE 5 mph 9 mph 67 % 0 in
18:42 48.4 °F 37.9 °F 30.3 in NE 4 mph 9 mph 67 % 0 in
18:47 48.4 °F 38.3 °F 30.3 in NNE 5 mph 9 mph 68 % 0 in
18:52 48 °F 37.9 °F 30.3 in NE 5 mph 9 mph 68 % 0 in
18:57 47.8 °F 38.1 °F 30.3 in NNE 6 mph 9 mph 69 % 0 in
19:02 47.7 °F 37.9 °F 30.3 in NNE 6 mph 8 mph 69 % 0 in
19:07 47.5 °F 37.8 °F 30.3 in NNE 6 mph 9 mph 69 % 0 in
19:12 47.5 °F 37.8 °F 30.3 in NNE 5 mph 9 mph 69 % 0 in
19:17 47.1 °F 37.4 °F 30.3 in NE 5 mph 9 mph 69 % 0 in
19:22 46.9 °F 37.6 °F 30.3 in NNE 5 mph 8 mph 70 % 0 in
19:32 46.2 °F 37.4 °F 30.3 in NNE 1 mph 8 mph 71 % 0 in
19:37 45.9 °F 37.8 °F 30.3 in NNE 3 mph 8 mph 73 % 0 in
19:42 45.7 °F 37.6 °F 30.3 in NNE 4 mph 6 mph 73 % 0 in
19:47 45.5 °F 37.8 °F 30.3 in North 4 mph 6 mph 74 % 0 in
19:52 45.5 °F 37.8 °F 30.3 in North 4 mph 8 mph 74 % 0 in
19:57 45.3 °F 37.9 °F 30.3 in NE 3 mph 8 mph 75 % 0 in
20:02 45.5 °F 38.1 °F 30.3 in NNE 7 mph 7 mph 75 % 0 in
20:12 45 °F 37.9 °F 30.3 in North 1 mph 8 mph 76 % 0 in
20:17 44.6 °F 37.8 °F 30.3 in NNE 2 mph 8 mph 77 % 0 in
20:22 44.4 °F 37.6 °F 30.3 in North 1 mph 6 mph 77 % 0 in
20:27 44.2 °F 37.8 °F 30.3 in Calm   4 mph 78 % 0 in
20:32 44.2 °F 37.6 °F 30.3 in North 3 mph 4 mph 77 % 0 in
20:37 44.1 °F 37.6 °F 30.3 in NE 3 mph 7 mph 78 % 0 in
20:42 44.2 °F 37.8 °F 30.3 in NNE 6 mph 7 mph 78 % 0 in
20:47 44.2 °F 37.6 °F 30.3 in NNE 1 mph 7 mph 77 % 0 in
20:52 44.2 °F 37.6 °F 30.3 in NE 1 mph 7 mph 77 % 0 in
20:57 44.1 °F 37.6 °F 30.3 in NE 3 mph 7 mph 78 % 0 in
21:02 44.2 °F 37.2 °F 30.3 in NNE 4 mph 6 mph 76 % 0 in
21:07 44.8 °F 37.4 °F 30.3 in NE 5 mph 8 mph 75 % 0 in
21:17 44.4 °F 37 °F 30.3 in NE 3 mph 10 mph 75 % 0 in
21:22 44.1 °F 37.4 °F 30.3 in NE 2 mph 10 mph 77 % 0 in
21:32 43.5 °F 37 °F 30.3 in NNE 1 mph 6 mph 78 % 0 in
21:37 43.3 °F 36.9 °F 30.3 in North 1 mph 6 mph 78 % 0 in
21:42 43.2 °F 36.7 °F 30.3 in Calm   5 mph 78 % 0 in
21:47 42.8 °F 36.7 °F 30.3 in NNW 1 mph 4 mph 79 % 0 in
21:52 42.3 °F 36.1 °F 30.3 in Calm   3 mph 79 % 0 in
21:57 42.1 °F 36.3 °F 30.3 in Calm   1 mph 80 % 0 in
22:02 41.9 °F 36.5 °F 30.3 in Calm   1 mph 81 % 0 in
22:12 42.1 °F 36.3 °F 30.3 in Calm     80 % 0 in
22:17 41.7 °F 36.3 °F 30.3 in Calm   1 mph 81 % 0 in
22:22 41.4 °F 36 °F 30.3 in WNW 1 mph 1 mph 81 % 0 in
22:32 41.5 °F 36.1 °F 30.3 in WNW 1 mph 2 mph 81 % 0 in
22:37 40.6 °F 35.2 °F 30.3 in Calm   2 mph 81 % 0 in
22:42 40.8 °F 36.1 °F 30.3 in Calm   2 mph 83 % 0 in
22:47 41.2 °F 36.1 °F 30.3 in NW 1 mph 2 mph 82 % 0 in
22:52 41.2 °F 36.1 °F 30.3 in NNW 1 mph 1 mph 82 % 0 in
22:57 41 °F 36 °F 30.3 in Calm   2 mph 82 % 0 in
23:02 40.8 °F 35.8 °F 30.3 in Calm   2 mph 82 % 0 in
23:07 40.6 °F 35.6 °F 30.3 in Calm   2 mph 82 % 0 in
23:12 40.5 °F 35.8 °F 30.3 in Calm   1 mph 83 % 0 in
23:17 40.5 °F 35.8 °F 30.3 in Calm   1 mph 83 % 0 in
23:22 40.3 °F 35.6 °F 30.3 in Calm   1 mph 83 % 0 in
23:27 39.9 °F 35.2 °F 30.3 in Calm   1 mph 83 % 0 in
23:32 39.7 °F 35.2 °F 30.3 in Calm   1 mph 84 % 0 in
23:37 39.7 °F 35.6 °F 30.3 in Calm   1 mph 85 % 0 in
23:42 39.6 °F 35.1 °F 30.3 in Calm   1 mph 84 % 0 in
23:47 39.2 °F 35.1 °F 30.3 in NNW 1 mph 1 mph 85 % 0 in
23:52 38.8 °F 34.7 °F 30.3 in Calm   2 mph 85 % 0 in
23:57 38.8 °F 35.1 °F 30.3 in NW 1 mph 2 mph 86 % 0 in
Meteo18
Compliments of Weather Underground - 4 mb

Script developed by  Jim McMurry - jmcmurry@mwt.net Adapted for the template by  Wim van der Kuil - Leuven-Template.eu

You find our weather info also at:

European Weather Network

Weather Underground

Equipment we use:

Weather-station
Davis Vue

Weather-program
Meteohub

Weather-server
Raspberry PI 2 B+

Provider
1 and 1

Davis Vue

Meteohub

Raspberry PI 2 B+

1 and 1